Terminal Aerodrome Forecast
Issued by NWS

Home | Current Version | Previous Version | Graphics & Text | Print | Product List | Glossary On
Versions: 1 2 3 4 5 6 7 8 9 10 11 12 13 14 15
000
FTUS43 KGRB 172300
TAFATW
TAF
KATW 172322Z 1800/1824 32007KT P6SM BKN035
     FM180300 32006KT P6SM SCT040 SCT250
     FM181000 33005KT P6SM SCT120 BKN250
     FM181500 34007KT P6SM SCT030 BKN100
     FM182200 06008KT P6SM SCT040 BKN120=

USA.gov is the U.S. government's official web portal to all federal, state and local government web resources and services.